Time;durP1;ratioP1;P1;durP2;ratioP2;P2;SDS_P1;SDS_P2;PMS_P1;PMS_P2;Temp;Humidity;BMP_temperature;BMP_pressure;BME280_temperature;BME280_humidity;BME280_pressure;Samples;Min_cycle;Max_cycle;Signal;HPM_P1;HPM_P2
2022/06/20 00:07:38;;;;;;;5.72;4.30;;;15.00;99.90;;;;;;20978176;28;20115;-56
2022/06/20 00:17:41;;;;;;;7.57;4.78;;;15.30;99.90;;;;;;21057682;28;20502;-50
2022/06/20 00:27:45;;;;;;;6.43;4.55;;;15.10;99.90;;;;;;21057017;28;20547;-49
2022/06/20 00:37:48;;;;;;;11.40;4.45;;;15.20;99.90;;;;;;21056170;28;20044;-55
2022/06/20 00:47:53;;;;;;;3.88;3.15;;;15.20;99.90;;;;;;21055514;28;20047;-51
2022/06/20 00:58:31;;;;;;;6.20;3.83;;;15.40;99.90;;;;;;21025804;28;20383;-56
2022/06/20 01:08:58;;;;;;;6.50;3.38;;;15.30;99.90;;;;;;20988006;28;20495;-50
2022/06/20 01:19:55;;;;;;;6.25;4.70;;;15.30;99.90;;;;;;20987342;28;20052;-47
2022/06/20 01:30:19;;;;;;;7.03;4.05;;;15.10;99.90;;;;;;20987009;28;20044;-51
2022/06/20 01:42:18;;;;;;;4.47;3.60;;;15.30;99.90;;;;;;21051485;28;20040;-56
2022/06/20 01:51:33;;;;;;;7.70;5.13;;;15.60;99.90;;;;;;21069852;28;20044;-56
2022/06/20 02:01:53;;;;;;;6.72;3.65;;;15.60;99.90;;;;;;21070193;28;20421;-51
2022/06/20 02:12:15;;;;;;;5.13;3.78;;;15.70;99.90;;;;;;21010867;28;20048;-57
2022/06/20 02:22:36;;;;;;;4.80;3.85;;;15.80;99.90;;;;;;20985244;28;20483;-56
2022/06/20 02:33:04;;;;;;;6.13;4.53;;;15.50;99.90;;;;;;21028372;28;20037;-55
2022/06/20 02:43:37;;;;;;;10.88;6.22;;;15.70;99.90;;;;;;21000935;28;20040;-49
2022/06/20 02:54:04;;;;;;;8.82;5.20;;;15.90;99.90;;;;;;21011731;28;20394;-53
2022/06/20 03:04:24;;;;;;;9.57;6.43;;;15.70;99.90;;;;;;21083267;28;20036;-51
2022/06/20 03:14:58;;;;;;;7.50;4.55;;;15.70;99.90;;;;;;21082118;28;20487;-56
2022/06/20 03:25:20;;;;;;;8.55;6.38;;;15.90;99.90;;;;;;21075438;28;20394;-56
2022/06/20 03:35:52;;;;;;;11.38;6.45;;;15.70;99.90;;;;;;21051521;28;20037;-56
2022/06/20 03:46:29;;;;;;;7.45;5.78;;;15.10;99.90;;;;;;20991497;28;20036;-56
2022/06/20 03:57:02;;;;;;;14.30;6.03;;;15.40;99.90;;;;;;20991004;28;20033;-56
2022/06/20 04:07:40;;;;;;;6.47;4.68;;;15.50;99.90;;;;;;21006910;28;20393;-57
2022/06/20 04:18:29;;;;;;;8.02;5.40;;;15.80;99.90;;;;;;21024177;28;1467379;-56
2022/06/20 04:29:00;;;;;;;6.07;4.85;;;16.10;99.90;;;;;;21075294;28;20417;-52
2022/06/20 04:39:26;;;;;;;5.85;4.32;;;16.40;99.90;;;;;;21075956;28;20044;-52
2022/06/20 04:49:47;;;;;;;15.48;6.75;;;16.20;99.90;;;;;;21073677;28;20036;-56
2022/06/20 05:00:17;;;;;;;10.52;6.65;;;16.20;99.90;;;;;;21009486;28;20040;-56
2022/06/20 05:11:02;;;;;;;7.75;4.63;;;16.40;99.90;;;;;;20988354;28;20044;-56
2022/06/20 05:21:46;;;;;;;6.35;4.90;;;16.70;99.90;;;;;;20987003;28;20415;-56
2022/06/20 05:32:11;;;;;;;7.18;5.95;;;16.70;99.90;;;;;;20986296;28;20344;-52
2022/06/20 05:42:32;;;;;;;7.05;4.43;;;;;;;;;;21067696;28;20478;-57
2022/06/20 05:52:37;;;;;;;7.72;4.60;;;17.10;99.90;;;;;;21050473;28;20039;-57
2022/06/20 06:03:10;;;;;;;8.38;4.45;;;17.50;99.90;;;;;;21049883;28;20028;-53
2022/06/20 06:13:40;;;;;;;5.00;3.15;;;18.00;99.90;;;;;;20983894;28;20044;-50
2022/06/20 06:23:45;;;;;;;5.88;2.70;;;21.00;99.90;;;;;;20966346;28;20037;-58
2022/06/20 06:33:50;;;;;;;4.50;3.17;;;24.50;96.70;;;;;;20965575;28;20052;-58
2022/06/20 06:43:55;;;;;;;6.33;3.20;;;26.30;92.30;;;;;;20965354;28;20102;-58
2022/06/20 06:54:08;;;;;;;4.73;3.53;;;27.60;86.50;;;;;;20977581;28;20095;-58
2022/06/20 07:04:24;;;;;;;3.73;3.20;;;27.80;87.30;;;;;;21048637;28;20032;-59
2022/06/20 07:14:27;;;;;;;6.33;3.70;;;28.90;84.20;;;;;;21055669;28;20062;-60
2022/06/20 07:24:34;;;;;;;6.80;5.70;;;29.50;85.00;;;;;;21062595;28;20290;-58
2022/06/20 07:34:52;;;;;;;5.05;4.30;;;29.90;77.60;;;;;;21047642;28;20040;-56
2022/06/20 07:45:00;;;;;;;6.40;4.05;;;29.40;80.90;;;;;;20977196;28;20036;-58
2022/06/20 07:55:11;;;;;;;7.55;4.55;;;29.50;83.40;;;;;;20976266;28;20446;-59
2022/06/20 08:05:23;;;;;;;5.90;4.93;;;29.80;84.70;;;;;;20975731;28;20098;-57
2022/06/20 08:15:33;;;;;;;6.38;5.78;;;29.50;84.50;;;;;;20991220;28;20064;-61
2022/06/20 08:25:45;;;;;;;6.78;5.75;;;29.50;86.10;;;;;;20972854;28;20037;-61
2022/06/20 08:35:57;;;;;;;9.57;6.20;;;29.20;87.70;;;;;;20973320;28;20036;-61
2022/06/20 08:46:31;;;;;;;7.95;6.65;;;28.90;87.50;;;;;;20972497;28;20064;-61
2022/06/20 08:56:40;;;;;;;;;;;28.70;87.30;;;;;;21006389;28;20040;-61
2022/06/20 09:06:55;;;;;;;10.27;7.88;;;28.50;89.70;;;;;;21054099;28;19981;-61
2022/06/20 09:17:24;;;;;;;9.10;6.93;;;28.30;88.10;;;;;;21053643;28;20051;-61
2022/06/20 09:27:36;;;;;;;14.38;6.85;;;28.00;91.10;;;;;;20795596;28;20045;-57
2022/06/20 09:38:12;;;;;;;7.55;5.88;;;28.70;90.80;;;;;;20794486;28;20049;-61
2022/06/20 09:48:23;;;;;;;5.35;4.85;;;29.20;90.50;;;;;;20794090;28;20099;-61
2022/06/20 09:58:26;;;;;;;9.55;5.30;;;29.30;88.00;;;;;;20842849;28;20032;-61
2022/06/20 10:08:38;;;;;;;10.45;5.75;;;28.70;89.50;;;;;;20992764;28;20032;-61
2022/06/20 10:19:10;;;;;;;9.32;5.38;;;28.90;85.00;;;;;;21049501;28;20078;-61
2022/06/20 10:29:23;;;;;;;8.73;5.43;;;28.90;88.20;;;;;;21049305;28;20036;-61
2022/06/20 10:39:43;;;;;;;10.25;6.90;;;29.00;83.00;;;;;;21048820;28;20085;-60
2022/06/20 10:50:21;;;;;;;6.90;6.20;;;28.60;82.70;;;;;;21057973;28;20036;-61
2022/06/20 11:00:27;;;;;;;11.68;7.18;;;28.60;87.30;;;;;;20806709;28;20495;-62
2022/06/20 11:11:01;;;;;;;9.38;8.07;;;27.90;90.10;;;;;;20805741;28;20041;-61
2022/06/20 11:21:17;;;;;;;10.13;6.30;;;27.50;91.30;;;;;;20804985;28;20072;-61
2022/06/20 11:31:33;;;;;;;13.77;5.97;;;28.00;90.20;;;;;;20855557;28;20403;-62
2022/06/20 11:41:55;;;;;;;12.47;5.33;;;28.30;89.20;;;;;;21050033;28;20035;-62
2022/06/20 11:52:24;;;;;;;8.05;4.82;;;28.60;87.70;;;;;;21060526;28;20062;-62
2022/06/20 12:02:48;;;;;;;14.90;4.85;;;29.00;81.90;;;;;;21059672;28;20109;-62
2022/06/20 12:13:34;;;;;;;11.30;6.30;;;29.30;81.70;;;;;;20995411;28;20197;-60
2022/06/20 12:23:48;;;;;;;11.48;6.35;;;27.40;82.40;;;;;;20974140;28;20094;-62
2022/06/20 12:34:00;;;;;;;10.02;4.50;;;28.10;84.50;;;;;;20973518;28;20037;-61
2022/06/20 12:44:19;;;;;;;9.65;3.85;;;28.00;85.50;;;;;;20972530;28;20036;-62
2022/06/20 12:54:33;;;;;;;7.05;3.30;;;28.90;81.10;;;;;;20980174;28;20032;-62
2022/06/20 13:05:20;;;;;;;9.85;3.53;;;29.70;79.20;;;;;;21001532;28;20271;-57
2022/06/20 13:15:38;;;;;;;7.82;2.88;;;29.40;78.20;;;;;;20729576;28;20042;-62
2022/06/20 13:26:02;;;;;;;5.50;3.30;;;29.60;78.20;;;;;;20697922;28;20046;-62
2022/06/20 13:36:33;;;;;;;8.23;3.85;;;30.30;79.40;;;;;;20729402;28;20192;-62
2022/06/20 13:47:14;;;;;;;12.45;4.53;;;30.40;79.00;;;;;;20805840;28;20048;-62
2022/06/20 13:57:30;;;;;;;8.85;4.40;;;30.60;75.30;;;;;;20983648;28;20037;-61
2022/06/20 14:07:32;;;;;;;9.13;4.80;;;30.50;76.80;;;;;;20964680;28;20036;-62
2022/06/20 14:17:39;;;;;;;8.13;4.68;;;30.30;75.50;;;;;;20946304;28;20126;-61
2022/06/20 14:27:48;;;;;;;10.98;5.22;;;30.00;77.00;;;;;;20982039;28;20037;-61
2022/06/20 14:37:53;;;;;;;11.55;5.82;;;30.80;76.80;;;;;;20982180;28;20050;-57
2022/06/20 14:48:06;;;;;;;;;;;31.40;75.70;;;;;;20981632;28;20036;-61
2022/06/20 14:58:12;;;;;;;12.05;6.70;;;31.60;76.80;;;;;;21029110;28;19916;-62
2022/06/20 15:08:53;;;;;;;10.07;6.88;;;32.20;75.60;;;;;;21063027;28;20040;-56
2022/06/20 15:19:17;;;;;;;9.07;6.18;;;32.20;72.60;;;;;;21061971;28;20563;-60
2022/06/20 15:29:43;;;;;;;9.47;7.27;;;31.60;74.10;;;;;;21061188;28;20047;-55
2022/06/20 15:39:57;;;;;;;9.82;6.63;;;31.20;73.80;;;;;;21002843;28;20041;-61
2022/06/20 15:50:32;;;;;;;15.48;5.55;;;30.70;74.80;;;;;;20976920;28;20044;-61
2022/06/20 16:00:54;;;;;;;12.83;6.20;;;30.00;76.40;;;;;;20971920;28;20110;-61
2022/06/20 16:11:06;;;;;;;10.55;4.93;;;29.00;76.00;;;;;;21021318;28;20116;-60
2022/06/20 16:21:17;;;;;;;6.88;4.10;;;26.80;81.60;;;;;;21057633;28;20109;-59
2022/06/20 16:31:30;;;;;;;9.65;4.20;;;25.60;84.90;;;;;;21056593;28;20060;-59
2022/06/20 16:41:45;;;;;;;8.57;4.55;;;24.80;86.60;;;;;;21055419;28;20044;-59
2022/06/20 16:52:00;;;;;;;10.23;4.40;;;24.80;86.90;;;;;;21055695;28;20097;-59
2022/06/20 17:02:26;;;;;;;7.97;5.07;;;23.90;87.70;;;;;;20974045;28;20028;-58
2022/06/20 17:12:35;;;;;;;11.10;4.32;;;22.70;90.60;;;;;;20953434;28;20045;-58
2022/06/20 17:23:14;;;;;;;11.25;4.65;;;22.00;91.80;;;;;;20969197;28;20036;-58
2022/06/20 17:33:53;;;;;;;10.32;5.10;;;21.30;93.50;;;;;;20970770;28;20089;-57
2022/06/20 17:44:06;;;;;;;10.18;5.25;;;21.10;94.00;;;;;;21051381;28;20031;-57
2022/06/20 17:54:16;;;;;;;12.23;6.45;;;20.90;95.20;;;;;;21050003;28;20101;-57
2022/06/20 18:04:35;;;;;;;14.43;7.45;;;20.40;95.40;;;;;;21050035;28;20085;-57
2022/06/20 18:14:42;;;;;;;14.50;7.22;;;20.10;95.70;;;;;;20972367;28;20395;-57
2022/06/20 18:24:55;;;;;;;12.65;6.72;;;20.10;96.30;;;;;;20966700;28;20029;-57
2022/06/20 18:35:01;;;;;;;11.60;8.00;;;20.60;95.50;;;;;;20965073;28;20032;-57
2022/06/20 18:45:05;;;;;;;16.10;8.40;;;20.70;95.10;;;;;;20964769;28;20040;-57
2022/06/20 18:55:34;;;;;;;12.23;6.70;;;20.60;95.00;;;;;;20986621;28;20380;-57
2022/06/20 19:05:55;;;;;;;12.68;6.53;;;20.80;94.40;;;;;;21048601;28;20086;-57
2022/06/20 19:16:22;;;;;;;10.00;6.30;;;20.40;95.30;;;;;;21062457;28;20044;-57
2022/06/20 19:26:53;;;;;;;11.63;5.20;;;20.20;95.70;;;;;;21062716;28;20043;-57
2022/06/20 19:37:03;;;;;;;10.07;5.25;;;19.80;97.80;;;;;;21028321;28;20036;-57
2022/06/20 19:47:10;;;;;;;14.13;7.10;;;19.00;99.80;;;;;;20976678;28;20070;-58
2022/06/20 19:57:17;;;;;;;11.27;6.55;;;18.50;99.90;;;;;;20975673;28;20029;-58
2022/06/20 20:07:33;;;;;;;8.40;5.70;;;18.10;99.90;;;;;;20991009;28;20396;-52
2022/06/20 20:17:55;;;;;;;8.95;6.60;;;17.90;99.90;;;;;;21057429;28;20444;-58
2022/06/20 20:28:23;;;;;;;8.82;5.63;;;17.50;99.90;;;;;;21056908;28;20032;-58
2022/06/20 20:39:14;;;;;;;13.73;6.15;;;17.30;99.90;;;;;;21056457;28;20040;-58
2022/06/20 20:49:27;;;;;;;9.48;6.00;;;17.10;99.90;;;;;;20798018;28;20038;-58
2022/06/20 21:00:02;;;;;;;9.15;5.65;;;17.00;99.90;;;;;;20796870;28;20075;-58
2022/06/20 21:10:36;;;;;;;10.88;5.95;;;16.90;99.90;;;;;;20569492;28;20469;-58
2022/06/20 21:21:15;;;;;;;9.27;5.75;;;16.80;99.90;;;;;;20605208;28;20050;-57
2022/06/20 21:31:22;;;;;;;15.38;6.32;;;16.70;99.90;;;;;;20631596;28;20501;-58
2022/06/20 21:41:59;;;;;;;11.20;6.10;;;16.60;99.90;;;;;;20759695;28;20081;-58
2022/06/20 21:52:10;;;;;;;14.13;7.10;;;16.40;99.90;;;;;;21050169;28;20039;-58
2022/06/20 22:12:46;;;;;;;10.90;6.15;;;16.20;99.90;;;;;;20988806;28;20048;-58
2022/06/20 22:22:53;;;;;;;16.77;7.50;;;15.90;99.90;;;;;;20965921;28;20092;-58
2022/06/20 22:32:59;;;;;;;12.20;7.68;;;15.80;99.90;;;;;;20965065;28;20067;-58
2022/06/20 22:43:03;;;;;;;15.48;8.30;;;15.80;99.90;;;;;;20970177;28;20478;-58
2022/06/20 22:53:12;;;;;;;11.25;7.38;;;15.80;99.90;;;;;;20986390;28;20058;-58
2022/06/20 23:03:21;;;;;;;10.38;6.85;;;15.80;99.90;;;;;;21063467;28;20390;-52
2022/06/20 23:13:27;;;;;;;13.55;7.78;;;15.70;99.90;;;;;;21062285;28;20105;-58
2022/06/20 23:23:30;;;;;;;12.43;7.97;;;15.50;99.90;;;;;;21061918;28;20040;-53
2022/06/20 23:33:32;;;;;;;10.93;8.07;;;15.40;99.90;;;;;;21044378;28;20546;-58
2022/06/20 23:43:36;;;;;;;13.57;9.00;;;15.30;99.90;;;;;;21044391;28;20031;-50
2022/06/20 23:53:39;;;;;;;13.00;9.05;;;15.30;99.90;;;;;;21059326;28;20036;-52
